sensor_id;sensor_type;location;lat;lon;timestamp;pressure;altitude;pressure_sealevel;temperature;humidity
39699;BME280;25372;50.582;12.250;2023-02-21T00:01:04;99723.34;;;8.37;88.38
39699;BME280;25372;50.582;12.250;2023-02-21T00:11:44;99730.94;;;8.32;88.17
39699;BME280;25372;50.582;12.250;2023-02-21T00:22:22;99735.59;;;8.30;88.06
39699;BME280;25372;50.582;12.250;2023-02-21T00:33:02;99748.13;;;8.28;88.84
39699;BME280;25372;50.582;12.250;2023-02-21T00:43:41;99742.91;;;8.20;89.41
39699;BME280;25372;50.582;12.250;2023-02-21T00:54:21;99730.97;;;8.24;89.48
39699;BME280;25372;50.582;12.250;2023-02-21T01:04:59;99712.84;;;8.21;89.71
39699;BME280;25372;50.582;12.250;2023-02-21T01:15:39;99706.91;;;8.27;88.09
39699;BME280;25372;50.582;12.250;2023-02-21T01:26:17;99698.63;;;8.30;87.77
39699;BME280;25372;50.582;12.250;2023-02-21T01:36:57;99696.44;;;8.34;87.50
39699;BME280;25372;50.582;12.250;2023-02-21T01:47:35;99691.69;;;8.29;89.00
39699;BME280;25372;50.582;12.250;2023-02-21T01:58:16;99685.88;;;8.34;88.33
39699;BME280;25372;50.582;12.250;2023-02-21T02:08:55;99680.44;;;8.35;89.19
39699;BME280;25372;50.582;12.250;2023-02-21T02:19:58;99669.84;;;8.44;88.54
39699;BME280;25372;50.582;12.250;2023-02-21T02:41:14;99656.28;;;8.55;87.73
39699;BME280;25372;50.582;12.250;2023-02-21T02:51:37;99645.75;;;8.47;89.04
39699;BME280;25372;50.582;12.250;2023-02-21T03:02:22;99649.88;;;8.49;88.13
39699;BME280;25372;50.582;12.250;2023-02-21T03:12:48;99642.28;;;8.46;89.36
39699;BME280;25372;50.582;12.250;2023-02-21T03:23:14;99631.03;;;8.52;90.29
39699;BME280;25372;50.582;12.250;2023-02-21T03:33:38;99634.13;;;8.56;90.27
39699;BME280;25372;50.582;12.250;2023-02-21T03:44:02;99625.91;;;8.51;91.03
39699;BME280;25372;50.582;12.250;2023-02-21T03:54:23;99630.50;;;8.57;90.21
39699;BME280;25372;50.582;12.250;2023-02-21T04:04:48;99626.69;;;8.60;90.41
39699;BME280;25372;50.582;12.250;2023-02-21T04:15:12;99626.84;;;8.58;90.80
39699;BME280;25372;50.582;12.250;2023-02-21T04:25:34;99627.84;;;8.57;91.38
39699;BME280;25372;50.582;12.250;2023-02-21T04:36:01;99620.50;;;8.67;91.15
39699;BME280;25372;50.582;12.250;2023-02-21T04:46:33;99633.53;;;8.69;92.02
39699;BME280;25372;50.582;12.250;2023-02-21T04:56:54;99635.78;;;8.80;91.48
39699;BME280;25372;50.582;12.250;2023-02-21T05:07:16;99627.44;;;8.68;92.40
39699;BME280;25372;50.582;12.250;2023-02-21T05:17:37;99620.47;;;8.76;92.42
39699;BME280;25372;50.582;12.250;2023-02-21T05:27:59;99609.13;;;8.67;93.63
39699;BME280;25372;50.582;12.250;2023-02-21T05:38:22;99618.16;;;8.72;92.95
39699;BME280;25372;50.582;12.250;2023-02-21T05:48:45;99636.66;;;8.72;92.40
39699;BME280;25372;50.582;12.250;2023-02-21T05:59:06;99645.63;;;8.63;94.16
39699;BME280;25372;50.582;12.250;2023-02-21T06:09:29;99646.22;;;8.73;92.56
39699;BME280;25372;50.582;12.250;2023-02-21T06:19:50;99669.06;;;8.66;94.42
39699;BME280;25372;50.582;12.250;2023-02-21T06:30:13;99660.50;;;8.64;94.01
39699;BME280;25372;50.582;12.250;2023-02-21T06:40:33;99667.31;;;8.82;92.75
39699;BME280;25372;50.582;12.250;2023-02-21T06:50:55;99686.94;;;8.87;92.45
39699;BME280;25372;50.582;12.250;2023-02-21T07:01:16;99691.97;;;8.97;92.11
39699;BME280;25372;50.582;12.250;2023-02-21T07:11:40;99710.50;;;8.97;92.71
39699;BME280;25372;50.582;12.250;2023-02-21T07:22:01;99726.03;;;9.15;92.23
39699;BME280;25372;50.582;12.250;2023-02-21T07:32:23;99741.44;;;9.12;91.47
39699;BME280;25372;50.582;12.250;2023-02-21T07:42:44;99753.28;;;9.16;91.47
39699;BME280;25372;50.582;12.250;2023-02-21T07:53:08;99744.56;;;9.15;91.27
39699;BME280;25372;50.582;12.250;2023-02-21T08:03:29;99764.19;;;9.21;91.20
39699;BME280;25372;50.582;12.250;2023-02-21T08:13:52;99759.78;;;9.36;91.10
39699;BME280;25372;50.582;12.250;2023-02-21T08:24:13;99752.31;;;9.17;91.34
39699;BME280;25372;50.582;12.250;2023-02-21T08:34:35;99770.59;;;9.27;91.65
39699;BME280;25372;50.582;12.250;2023-02-21T08:44:56;99763.28;;;9.52;91.24
39699;BME280;25372;50.582;12.250;2023-02-21T08:55:18;99764.34;;;9.81;89.04
39699;BME280;25372;50.582;12.250;2023-02-21T09:05:39;99758.97;;;10.04;87.38
39699;BME280;25372;50.582;12.250;2023-02-21T09:16:02;99761.91;;;10.54;84.35
39699;BME280;25372;50.582;12.250;2023-02-21T09:26:23;99744.16;;;9.94;86.03
39699;BME280;25372;50.582;12.250;2023-02-21T09:36:45;99770.50;;;10.41;84.45
39699;BME280;25372;50.582;12.250;2023-02-21T09:47:09;99777.16;;;11.03;83.43
39699;BME280;25372;50.582;12.250;2023-02-21T09:57:35;99766.78;;;10.87;82.24
39699;BME280;25372;50.582;12.250;2023-02-21T10:07:59;99779.47;;;10.91;84.36
39699;BME280;25372;50.582;12.250;2023-02-21T10:18:32;99790.84;;;11.28;80.67
39699;BME280;25372;50.582;12.250;2023-02-21T10:28:55;99803.03;;;11.01;80.61
39699;BME280;25372;50.582;12.250;2023-02-21T10:39:20;99795.72;;;11.03;80.71
39699;BME280;25372;50.582;12.250;2023-02-21T10:49:45;99792.69;;;11.06;80.68
39699;BME280;25372;50.582;12.250;2023-02-21T11:00:19;99808.34;;;11.01;79.64
39699;BME280;25372;50.582;12.250;2023-02-21T11:10:43;99799.88;;;10.91;79.61
39699;BME280;25372;50.582;12.250;2023-02-21T11:21:12;99789.66;;;10.73;82.45
39699;BME280;25372;50.582;12.250;2023-02-21T11:31:33;99798.97;;;10.84;81.84
39699;BME280;25372;50.582;12.250;2023-02-21T11:41:57;99786.81;;;10.74;82.75
39699;BME280;25372;50.582;12.250;2023-02-21T11:52:21;99799.69;;;10.92;81.37
39699;BME280;25372;50.582;12.250;2023-02-21T12:03:07;99792.53;;;10.56;83.51
39699;BME280;25372;50.582;12.250;2023-02-21T12:13:39;99787.25;;;10.41;84.48
39699;BME280;25372;50.582;12.250;2023-02-21T12:24:12;99795.72;;;10.52;84.31
39699;BME280;25372;50.582;12.250;2023-02-21T12:34:45;99774.94;;;10.70;82.11
39699;BME280;25372;50.582;12.250;2023-02-21T12:45:23;99767.78;;;10.86;82.35
39699;BME280;25372;50.582;12.250;2023-02-21T12:55:53;99752.09;;;11.06;81.28
39699;BME280;25372;50.582;12.250;2023-02-21T13:06:21;99743.94;;;11.07;81.19
39699;BME280;25372;50.582;12.250;2023-02-21T13:16:44;99746.53;;;11.22;80.91
39699;BME280;25372;50.582;12.250;2023-02-21T13:27:28;99731.66;;;10.85;81.14
39699;BME280;25372;50.582;12.250;2023-02-21T13:37:53;99733.38;;;10.71;82.74
39699;BME280;25372;50.582;12.250;2023-02-21T13:48:22;99735.63;;;10.37;82.65
39699;BME280;25372;50.582;12.250;2023-02-21T13:58:45;99740.06;;;10.22;84.77
39699;BME280;25372;50.582;12.250;2023-02-21T14:09:12;99742.53;;;10.23;85.67
39699;BME280;25372;50.582;12.250;2023-02-21T14:19:36;99745.56;;;10.35;85.09
39699;BME280;25372;50.582;12.250;2023-02-21T14:30:24;99742.63;;;10.45;83.71
39699;BME280;25372;50.582;12.250;2023-02-21T14:51:41;99734.63;;;10.38;85.09
39699;BME280;25372;50.582;12.250;2023-02-21T15:02:17;99739.47;;;10.35;85.03
39699;BME280;25372;50.582;12.250;2023-02-21T15:12:45;99733.31;;;10.19;86.10
39699;BME280;25372;50.582;12.250;2023-02-21T15:23:10;99726.81;;;10.22;85.96
39699;BME280;25372;50.582;12.250;2023-02-21T15:33:35;99740.44;;;10.19;86.25
39699;BME280;25372;50.582;12.250;2023-02-21T15:44:00;99746.75;;;10.03;87.18
39699;BME280;25372;50.582;12.250;2023-02-21T15:54:26;99758.81;;;10.05;85.89
39699;BME280;25372;50.582;12.250;2023-02-21T16:04:49;99755.22;;;9.98;86.47
39699;BME280;25372;50.582;12.250;2023-02-21T16:15:22;99775.94;;;9.94;87.14
39699;BME280;25372;50.582;12.250;2023-02-21T16:25:54;99783.13;;;9.86;88.45
39699;BME280;25372;50.582;12.250;2023-02-21T16:36:19;99776.59;;;9.82;89.37
39699;BME280;25372;50.582;12.250;2023-02-21T16:46:42;99786.88;;;9.76;88.15
39699;BME280;25372;50.582;12.250;2023-02-21T16:57:06;99778.38;;;9.66;88.03
39699;BME280;25372;50.582;12.250;2023-02-21T17:07:28;99792.16;;;9.76;87.65
39699;BME280;25372;50.582;12.250;2023-02-21T17:17:51;99801.19;;;9.67;87.95
39699;BME280;25372;50.582;12.250;2023-02-21T17:28:11;99807.72;;;9.56;88.48
39699;BME280;25372;50.582;12.250;2023-02-21T17:38:34;99820.75;;;9.58;88.14
39699;BME280;25372;50.582;12.250;2023-02-21T17:48:54;99820.66;;;9.51;89.39
39699;BME280;25372;50.582;12.250;2023-02-21T17:59:17;99822.91;;;9.39;88.77
39699;BME280;25372;50.582;12.250;2023-02-21T18:09:38;99828.47;;;9.45;88.65
39699;BME280;25372;50.582;12.250;2023-02-21T18:20:00;99837.72;;;9.49;86.15
39699;BME280;25372;50.582;12.250;2023-02-21T18:30:21;99851.47;;;9.44;85.59
39699;BME280;25372;50.582;12.250;2023-02-21T18:40:43;99847.69;;;9.38;85.87
39699;BME280;25372;50.582;12.250;2023-02-21T18:51:07;99847.09;;;9.28;86.56
39699;BME280;25372;50.582;12.250;2023-02-21T19:01:29;99839.69;;;9.23;87.33
39699;BME280;25372;50.582;12.250;2023-02-21T19:11:50;99851.13;;;9.16;87.17
39699;BME280;25372;50.582;12.250;2023-02-21T19:22:12;99864.88;;;9.11;87.63
39699;BME280;25372;50.582;12.250;2023-02-21T19:32:32;99864.59;;;9.06;89.94
39699;BME280;25372;50.582;12.250;2023-02-21T19:42:55;99878.44;;;9.08;88.02
39699;BME280;25372;50.582;12.250;2023-02-21T19:53:17;99886.72;;;9.05;88.26
39699;BME280;25372;50.582;12.250;2023-02-21T20:03:39;99892.75;;;8.82;90.14
39699;BME280;25372;50.582;12.250;2023-02-21T20:14:00;99914.22;;;8.87;91.52
39699;BME280;25372;50.582;12.250;2023-02-21T20:24:22;99909.44;;;8.83;91.27
39699;BME280;25372;50.582;12.250;2023-02-21T20:34:43;99902.03;;;8.78;90.70
39699;BME280;25372;50.582;12.250;2023-02-21T20:45:07;99912.28;;;8.73;92.37
39699;BME280;25372;50.582;12.250;2023-02-21T20:55:29;99912.94;;;8.75;90.78
39699;BME280;25372;50.582;12.250;2023-02-21T21:05:51;99902.41;;;8.59;91.08
39699;BME280;25372;50.582;12.250;2023-02-21T21:16:13;99904.88;;;8.60;91.13
39699;BME280;25372;50.582;12.250;2023-02-21T21:26:42;99909.53;;;8.58;89.38
39699;BME280;25372;50.582;12.250;2023-02-21T21:37:04;99897.13;;;8.59;89.37
39699;BME280;25372;50.582;12.250;2023-02-21T21:47:29;99895.97;;;8.53;89.12
39699;BME280;25372;50.582;12.250;2023-02-21T21:57:53;99902.09;;;8.53;89.03
39699;BME280;25372;50.582;12.250;2023-02-21T22:08:16;99907.22;;;8.47;88.43
39699;BME280;25372;50.582;12.250;2023-02-21T22:18:37;99906.91;;;8.33;89.31
39699;BME280;25372;50.582;12.250;2023-02-21T22:29:00;99918.13;;;8.27;89.89
39699;BME280;25372;50.582;12.250;2023-02-21T22:39:25;99916.13;;;8.29;91.01
39699;BME280;25372;50.582;12.250;2023-02-21T22:49:47;99912.00;;;8.35;90.58
39699;BME280;25372;50.582;12.250;2023-02-21T23:00:09;99913.31;;;8.31;90.65
39699;BME280;25372;50.582;12.250;2023-02-21T23:10:39;99905.88;;;8.43;89.03
39699;BME280;25372;50.582;12.250;2023-02-21T23:21:02;99899.78;;;8.42;88.87
39699;BME280;25372;50.582;12.250;2023-02-21T23:31:24;99915.47;;;8.44;87.80
39699;BME280;25372;50.582;12.250;2023-02-21T23:41:45;99872.91;;;8.22;88.62
39699;BME280;25372;50.582;12.250;2023-02-21T23:52:08;99907.56;;;8.11;91.01
